Time,TemperatureF,DewpointF,PressureIn,WindDirection,WindDirectionDegrees,WindSpeedMPH,WindSpeedGustMPH,Humidity,HourlyPrecipIn,Conditions,Clouds,dailyrainin,SoftwareType,DateUTC
2013-02-08 00:01:00,34.9,31.1,30.00,ESE,105,7.0,7.0,86,0.00,,,0.25,Wunderground v.1.15,2013-02-08 05:01:00,
2013-02-08 00:03:00,35.0,31.2,30.00,ESE,119,8.0,8.0,86,0.00,,,0.00,Wunderground v.1.15,2013-02-08 05:03:00,
2013-02-08 00:04:00,35.0,31.2,30.00,ESE,121,8.0,8.0,86,0.00,,,0.00,Wunderground v.1.15,2013-02-08 05:04:00,
2013-02-08 00:09:00,35.0,31.2,29.99,ESE,121,8.0,8.0,86,0.00,,,0.00,Wunderground v.1.15,2013-02-08 05:09:00,
2013-02-08 00:15:00,35.0,31.2,29.99,ESE,119,7.0,9.0,86,0.00,,,0.00,Wunderground v.1.15,2013-02-08 05:15:00,
2013-02-08 00:21:00,35.0,31.2,29.99,ESE,117,7.0,8.0,86,0.00,,,0.00,Wunderground v.1.15,2013-02-08 05:21:00,
2013-02-08 03:59:00,34.8,31.3,29.90,ESE,112,8.0,10.0,87,0.00,,,0.00,Wunderground v.1.15,2013-02-08 08:59:00,
2013-02-08 04:05:00,34.8,31.6,29.89,ESE,119,8.0,10.0,88,0.00,,,0.00,Wunderground v.1.15,2013-02-08 09:05:00,
2013-02-08 04:11:00,34.8,31.6,29.89,ESE,114,8.0,10.0,88,0.00,,,0.00,Wunderground v.1.15,2013-02-08 09:11:00,
2013-02-08 04:16:00,34.8,31.6,29.89,SE,128,8.0,10.0,88,0.00,,,0.00,Wunderground v.1.15,2013-02-08 09:16:00,
2013-02-08 04:22:00,34.7,31.5,29.89,ESE,115,8.0,10.0,88,0.00,,,0.00,Wunderground v.1.15,2013-02-08 09:22:00,
2013-02-08 04:28:00,34.5,31.3,29.89,ESE,110,8.0,10.0,88,0.00,,,0.00,Wunderground v.1.15,2013-02-08 09:28:00,
2013-02-08 04:34:00,34.6,31.4,29.89,ESE,121,8.0,10.0,88,0.00,,,0.00,Wunderground v.1.15,2013-02-08 09:34:00,
2013-02-08 04:40:00,34.4,31.2,29.89,East,101,8.0,8.0,88,0.00,,,0.00,Wunderground v.1.15,2013-02-08 09:40:00,
2013-02-08 04:46:00,34.5,31.3,29.89,SE,138,8.0,10.0,88,0.00,,,0.00,Wunderground v.1.15,2013-02-08 09:46:00,
2013-02-08 04:52:00,34.4,31.5,29.89,ESE,105,8.0,10.0,89,0.00,,,0.00,Wunderground v.1.15,2013-02-08 09:52:00,
2013-02-08 04:57:00,34.3,31.1,29.88,ESE,115,8.0,10.0,88,0.00,,,0.00,Wunderground v.1.15,2013-02-08 09:57:00,
2013-02-08 05:03:00,34.3,31.1,29.88,ESE,111,8.0,10.0,88,0.00,,,0.00,Wunderground v.1.15,2013-02-08 10:03:00,
2013-02-08 05:09:00,34.3,31.1,29.88,ESE,109,8.0,11.0,88,0.00,,,0.00,Wunderground v.1.15,2013-02-08 10:09:00,
2013-02-08 05:15:00,34.2,31.0,29.88,ESE,111,8.0,10.0,88,0.00,,,0.00,Wunderground v.1.15,2013-02-08 10:15:00,
2013-02-08 05:21:00,34.1,31.2,29.88,SE,127,8.0,10.0,89,0.00,,,0.00,Wunderground v.1.15,2013-02-08 10:21:00,
2013-02-08 05:27:00,34.1,31.2,29.88,ESE,112,8.0,10.0,89,0.00,,,0.00,Wunderground v.1.15,2013-02-08 10:27:00,
2013-02-08 05:33:00,34.2,31.0,29.88,ESE,116,7.0,10.0,88,0.00,,,0.00,Wunderground v.1.15,2013-02-08 10:33:00,
2013-02-08 05:38:00,34.2,31.0,29.88,ESE,111,7.0,10.0,88,0.00,,,0.00,Wunderground v.1.15,2013-02-08 10:38:00,
2013-02-08 05:44:00,34.2,31.0,29.88,ESE,109,7.0,10.0,88,0.00,,,0.00,Wunderground v.1.15,2013-02-08 10:44:00,
2013-02-08 05:50:00,34.2,31.0,29.87,ESE,115,7.0,10.0,88,0.00,,,0.00,Wunderground v.1.15,2013-02-08 10:50:00,
2013-02-08 05:56:00,34.2,31.0,29.88,ESE,115,7.0,10.0,88,0.00,,,0.00,Wunderground v.1.15,2013-02-08 10:56:00,
2013-02-08 06:02:00,34.2,31.0,29.87,ESE,109,7.0,10.0,88,0.00,,,0.00,Wunderground v.1.15,2013-02-08 11:02:00,
2013-02-08 06:08:00,34.3,31.1,29.88,ESE,112,7.0,10.0,88,0.00,,,0.00,Wunderground v.1.15,2013-02-08 11:08:00,
2013-02-08 06:14:00,34.4,31.2,29.87,ESE,113,7.0,10.0,88,0.00,,,0.00,Wunderground v.1.15,2013-02-08 11:14:00,
2013-02-08 06:19:00,34.5,31.3,29.87,ESE,112,8.0,10.0,88,0.00,,,0.00,Wunderground v.1.15,2013-02-08 11:19:00,
2013-02-08 06:25:00,34.5,31.3,29.87,ESE,121,7.0,10.0,88,0.00,,,0.00,Wunderground v.1.15,2013-02-08 11:25:00,
2013-02-08 06:32:00,34.5,31.3,29.87,ESE,111,7.0,10.0,88,0.00,,,0.00,Wunderground v.1.15,2013-02-08 11:32:00,
2013-02-08 06:38:00,34.4,31.2,29.86,ESE,120,7.0,10.0,88,0.00,,,0.00,Wunderground v.1.15,2013-02-08 11:38:00,
2013-02-08 06:44:00,34.5,31.3,29.86,ESE,110,8.0,10.0,88,0.00,,,0.00,Wunderground v.1.15,2013-02-08 11:44:00,
2013-02-08 06:50:00,34.4,30.9,29.86,ESE,105,8.0,8.0,87,0.00,,,0.00,Wunderground v.1.15,2013-02-08 11:50:00,
2013-02-08 06:56:00,34.3,31.1,29.86,ESE,112,8.0,10.0,88,0.00,,,0.00,Wunderground v.1.15,2013-02-08 11:56:00,
2013-02-08 07:02:00,34.3,31.1,29.86,ESE,115,8.0,10.0,88,0.00,,,0.00,Wunderground v.1.15,2013-02-08 12:02:00,
2013-02-08 07:08:00,34.3,31.1,29.86,ESE,111,7.0,10.0,88,0.00,,,0.00,Wunderground v.1.15,2013-02-08 12:08:00,
2013-02-08 07:14:00,34.3,30.8,29.86,ESE,116,7.0,10.0,87,0.00,,,0.00,Wunderground v.1.15,2013-02-08 12:14:00,
2013-02-08 07:19:00,34.3,30.8,29.86,ESE,109,7.0,10.0,87,0.00,,,0.00,Wunderground v.1.15,2013-02-08 12:19:00,
2013-02-08 07:25:00,34.3,30.8,29.85,ESE,112,8.0,10.0,87,0.00,,,0.00,Wunderground v.1.15,2013-02-08 12:25:00,
2013-02-08 07:32:00,34.3,30.8,29.85,ESE,112,8.0,10.0,87,0.00,,,0.00,Wunderground v.1.15,2013-02-08 12:32:00,
2013-02-08 07:38:00,34.3,30.8,29.86,ESE,103,8.0,10.0,87,0.00,,,0.00,Wunderground v.1.15,2013-02-08 12:38:00,
2013-02-08 07:44:00,34.4,30.9,29.85,ESE,109,8.0,10.0,87,0.00,,,0.00,Wunderground v.1.15,2013-02-08 12:44:00,
2013-02-08 07:50:00,34.4,30.9,29.86,ESE,116,7.0,7.0,87,0.00,,,0.00,Wunderground v.1.15,2013-02-08 12:50:00,
2013-02-08 07:56:00,34.3,30.8,29.85,ESE,111,7.0,10.0,87,0.00,,,0.00,Wunderground v.1.15,2013-02-08 12:56:00,
2013-02-08 08:02:00,34.4,30.9,29.86,ESE,105,7.0,10.0,87,0.00,,,0.00,Wunderground v.1.15,2013-02-08 13:02:00,
2013-02-08 08:08:00,34.5,31.0,29.85,ESE,111,6.0,10.0,87,0.00,,,0.00,Wunderground v.1.15,2013-02-08 13:08:00,
2013-02-08 08:14:00,34.6,31.1,29.86,ESE,103,6.0,10.0,87,0.00,,,0.00,Wunderground v.1.15,2013-02-08 13:14:00,
2013-02-08 08:20:00,34.7,31.2,29.85,ESE,102,6.0,6.0,87,0.00,,,0.00,Wunderground v.1.15,2013-02-08 13:20:00,
2013-02-08 08:26:00,34.6,31.1,29.85,ESE,105,6.0,10.0,87,0.00,,,0.00,Wunderground v.1.15,2013-02-08 13:26:00,
2013-02-08 08:32:00,34.6,31.1,29.85,ESE,112,6.0,10.0,87,0.00,,,0.00,Wunderground v.1.15,2013-02-08 13:32:00,
2013-02-08 08:38:00,34.8,31.3,29.84,ESE,111,6.0,10.0,87,0.00,,,0.00,Wunderground v.1.15,2013-02-08 13:38:00,
2013-02-08 08:43:00,34.9,31.4,29.84,ESE,113,6.0,10.0,87,0.00,,,0.00,Wunderground v.1.15,2013-02-08 13:43:00,
2013-02-08 08:49:00,35.1,31.3,29.84,ESE,113,6.0,10.0,86,0.00,,,0.00,Wunderground v.1.15,2013-02-08 13:49:00,
2013-02-08 08:55:00,35.4,31.6,29.84,ESE,111,6.0,10.0,86,0.00,,,0.01,Wunderground v.1.15,2013-02-08 13:55:00,
2013-02-08 09:01:00,35.7,31.6,29.84,ESE,113,5.0,10.0,85,0.00,,,0.01,Wunderground v.1.15,2013-02-08 14:01:00,
2013-02-08 09:07:00,35.8,31.7,29.83,ESE,112,5.0,10.0,85,0.00,,,0.01,Wunderground v.1.15,2013-02-08 14:07:00,
2013-02-08 09:13:00,36.1,32.0,29.83,ESE,111,6.0,10.0,85,0.00,,,0.01,Wunderground v.1.15,2013-02-08 14:13:00,
2013-02-08 09:19:00,36.5,32.4,29.83,ESE,106,5.0,10.0,85,0.00,,,0.01,Wunderground v.1.15,2013-02-08 14:19:00,
2013-02-08 09:25:00,36.8,32.4,29.83,SE,126,5.0,10.0,84,0.00,,,0.01,Wunderground v.1.15,2013-02-08 14:25:00,
2013-02-08 09:31:00,36.9,32.2,29.83,ESE,116,5.0,10.0,83,0.00,,,0.01,Wunderground v.1.15,2013-02-08 14:31:00,
2013-02-08 09:37:00,36.8,32.4,29.83,ESE,115,5.0,10.0,84,0.00,,,0.01,Wunderground v.1.15,2013-02-08 14:37:00,
2013-02-08 09:43:00,36.7,32.3,29.83,ESE,111,4.0,10.0,84,0.00,,,0.01,Wunderground v.1.15,2013-02-08 14:43:00,
2013-02-08 09:49:00,36.7,32.3,29.83,ESE,117,4.0,10.0,84,0.00,,,0.01,Wunderground v.1.15,2013-02-08 14:49:00,
2013-02-08 09:54:00,36.9,32.8,29.83,SE,132,4.0,10.0,85,0.00,,,0.02,Wunderground v.1.15,2013-02-08 14:54:00,
2013-02-08 10:00:00,37.5,34.0,29.84,SSE,164,4.0,4.0,87,0.00,,,0.02,Wunderground v.1.15,2013-02-08 15:00:00,
2013-02-08 10:06:00,37.8,34.6,29.84,South,173,3.0,10.0,88,0.05,,,0.03,Wunderground v.1.15,2013-02-08 15:06:00,
2013-02-08 10:12:00,38.0,35.0,29.84,SE,146,2.0,10.0,89,0.11,,,0.04,Wunderground v.1.15,2013-02-08 15:12:00,
2013-02-08 10:18:00,38.0,35.6,29.85,SSE,160,2.0,10.0,91,0.12,,,0.05,Wunderground v.1.15,2013-02-08 15:18:00,
2013-02-08 10:24:00,38.2,36.1,29.85,SSE,168,1.0,10.0,92,0.15,,,0.07,Wunderground v.1.15,2013-02-08 15:24:00,
2013-02-08 10:30:00,38.4,36.3,29.85,SSW,201,1.0,10.0,92,0.10,,,0.07,Wunderground v.1.15,2013-02-08 15:30:00,
2013-02-08 10:36:00,38.6,36.8,29.85,SW,216,1.0,10.0,93,0.09,,,0.08,Wunderground v.1.15,2013-02-08 15:36:00,
2013-02-08 10:42:00,38.7,36.9,29.85,SW,215,1.0,10.0,93,0.10,,,0.09,Wunderground v.1.15,2013-02-08 15:42:00,
2013-02-08 10:48:00,38.7,37.1,29.85,SSW,213,1.0,10.0,94,0.06,,,0.10,Wunderground v.1.15,2013-02-08 15:48:00,
2013-02-08 10:53:00,38.6,37.0,29.86,West,277,1.0,10.0,94,0.12,,,0.11,Wunderground v.1.15,2013-02-08 15:53:00,
2013-02-08 10:59:00,38.6,37.3,29.85,WSW,258,2.0,10.0,95,0.08,,,0.12,Wunderground v.1.15,2013-02-08 15:59:00,
2013-02-08 11:04:00,38.4,37.1,29.85,WSW,247,3.0,10.0,95,0.15,,,0.13,Wunderground v.1.15,2013-02-08 16:04:00,
2013-02-08 11:09:00,38.3,37.0,29.85,NNW,331,4.0,10.0,95,0.22,,,0.15,Wunderground v.1.15,2013-02-08 16:09:00,
2013-02-08 11:15:00,38.1,36.8,29.85,SSW,213,5.0,10.0,95,0.21,,,0.17,Wunderground v.1.15,2013-02-08 16:15:00,
2013-02-08 11:21:00,37.8,36.5,29.85,West,272,4.0,10.0,95,0.11,,,0.18,Wunderground v.1.15,2013-02-08 16:21:00,
2013-02-08 11:26:00,37.7,36.4,29.84,SSW,201,3.0,10.0,95,0.14,,,0.19,Wunderground v.1.15,2013-02-08 16:26:00,
2013-02-08 11:32:00,37.7,36.7,29.84,SSW,196,2.0,10.0,96,0.08,,,0.20,Wunderground v.1.15,2013-02-08 16:32:00,
2013-02-08 11:38:00,37.5,36.5,29.84,South,182,2.0,10.0,96,0.08,,,0.20,Wunderground v.1.15,2013-02-08 16:38:00,
2013-02-08 11:43:00,37.5,36.5,29.84,SSW,213,3.0,10.0,96,0.09,,,0.21,Wunderground v.1.15,2013-02-08 16:43:00,
2013-02-08 11:49:00,37.4,36.4,29.84,SW,230,3.0,10.0,96,0.06,,,0.21,Wunderground v.1.15,2013-02-08 16:49:00,
2013-02-08 11:54:00,37.3,36.3,29.84,SW,222,3.0,10.0,96,0.04,,,0.21,Wunderground v.1.15,2013-02-08 16:54:00,
2013-02-08 12:00:00,37.3,36.3,29.84,SSW,212,3.0,3.0,96,0.00,,,0.22,Wunderground v.1.15,2013-02-08 17:00:00,
2013-02-08 12:06:00,37.3,36.5,29.84,SW,230,3.0,10.0,97,0.00,,,0.22,Wunderground v.1.15,2013-02-08 17:06:00,
2013-02-08 12:12:00,37.2,36.4,29.84,WNW,295,4.0,10.0,97,0.00,,,0.22,Wunderground v.1.15,2013-02-08 17:12:00,
2013-02-08 12:17:00,37.2,36.4,29.84,NW,310,3.0,10.0,97,0.04,,,0.23,Wunderground v.1.15,2013-02-08 17:17:00,
2013-02-08 12:22:00,37.2,36.4,29.84,WNW,283,3.0,10.0,97,0.04,,,0.23,Wunderground v.1.15,2013-02-08 17:22:00,
2013-02-08 12:27:00,37.1,36.3,29.84,WNW,293,3.0,10.0,97,0.04,,,0.23,Wunderground v.1.15,2013-02-08 17:27:00,
2013-02-08 12:32:00,37.0,36.2,29.84,WNW,296,3.0,10.0,97,0.00,,,0.23,Wunderground v.1.15,2013-02-08 17:32:00,
2013-02-08 12:38:00,37.0,36.2,29.84,WNW,288,4.0,10.0,97,0.00,,,0.24,Wunderground v.1.15,2013-02-08 17:38:00,
2013-02-08 12:44:00,36.8,36.0,29.84,West,274,5.0,10.0,97,0.00,,,0.24,Wunderground v.1.15,2013-02-08 17:44:00,
2013-02-08 12:49:00,36.6,36.1,29.84,SW,233,4.0,10.0,98,0.05,,,0.25,Wunderground v.1.15,2013-02-08 17:49:00,
2013-02-08 12:54:00,36.4,35.9,29.84,WNW,290,3.0,10.0,98,0.05,,,0.25,Wunderground v.1.15,2013-02-08 17:54:00,
2013-02-08 13:00:00,36.2,35.4,29.84,NW,312,5.0,5.0,97,0.04,,,0.25,Wunderground v.1.15,2013-02-08 18:00:00,
2013-02-08 13:06:00,36.0,35.5,29.84,WSW,256,3.0,10.0,98,0.04,,,0.26,Wunderground v.1.15,2013-02-08 18:06:00,
2013-02-08 13:12:00,35.9,35.4,29.84,WNW,285,3.0,10.0,98,0.04,,,0.26,Wunderground v.1.15,2013-02-08 18:12:00,
2013-02-08 13:18:00,35.6,35.1,29.85,NW,313,4.0,10.0,98,0.04,,,0.26,Wunderground v.1.15,2013-02-08 18:18:00,
2013-02-08 13:23:00,35.3,34.8,29.85,West,266,4.0,10.0,98,0.00,,,0.27,Wunderground v.1.15,2013-02-08 18:23:00,
2013-02-08 13:29:00,34.7,34.2,29.86,West,264,5.0,10.0,98,0.00,,,0.27,Wunderground v.1.15,2013-02-08 18:29:00,
2013-02-08 13:35:00,34.5,34.0,29.86,WNW,288,6.0,10.0,98,0.00,,,0.27,Wunderground v.1.15,2013-02-08 18:35:00,
2013-02-08 13:40:00,34.4,33.9,29.86,West,263,5.0,5.0,98,0.00,,,0.27,Wunderground v.1.15,2013-02-08 18:40:00,
2013-02-08 13:46:00,34.3,33.8,29.86,SSW,202,5.0,10.0,98,0.00,,,0.27,Wunderground v.1.15,2013-02-08 18:46:00,
2013-02-08 13:52:00,34.1,33.3,29.86,South,181,5.0,10.0,97,0.00,,,0.27,Wunderground v.1.15,2013-02-08 18:52:00,
2013-02-08 13:58:00,34.0,33.2,29.86,SW,236,5.0,10.0,97,0.00,,,0.27,Wunderground v.1.15,2013-02-08 18:58:00,
2013-02-08 14:04:00,34.0,33.2,29.87,WNW,287,6.0,10.0,97,0.00,,,0.27,Wunderground v.1.15,2013-02-08 19:04:00,
2013-02-08 14:10:00,33.9,32.9,29.87,West,281,6.0,10.0,96,0.00,,,0.27,Wunderground v.1.15,2013-02-08 19:10:00,
2013-02-08 14:16:00,33.7,32.7,29.87,WNW,288,6.0,10.0,96,0.00,,,0.27,Wunderground v.1.15,2013-02-08 19:16:00,
2013-02-08 14:22:00,33.5,32.5,29.87,WNW,287,6.0,10.0,96,0.00,,,0.27,Wunderground v.1.15,2013-02-08 19:22:00,
2013-02-08 14:28:00,33.5,32.5,29.87,West,281,4.0,10.0,96,0.00,,,0.27,Wunderground v.1.15,2013-02-08 19:28:00,
2013-02-08 14:34:00,33.3,32.3,29.87,NW,313,3.0,10.0,96,0.00,,,0.27,Wunderground v.1.15,2013-02-08 19:34:00,
2013-02-08 14:40:00,33.0,32.0,29.87,NNW,332,4.0,10.0,96,0.00,,,0.27,Wunderground v.1.15,2013-02-08 19:40:00,
2013-02-08 14:46:00,32.7,31.4,29.88,WNW,288,6.0,11.0,95,0.00,,,0.28,Wunderground v.1.15,2013-02-08 19:46:00,
2013-02-08 14:52:00,32.5,31.2,29.88,WNW,292,7.0,12.0,95,0.00,,,0.28,Wunderground v.1.15,2013-02-08 19:52:00,
2013-02-08 14:58:00,32.4,31.1,29.89,West,265,7.0,12.0,95,0.00,,,0.28,Wunderground v.1.15,2013-02-08 19:58:00,
2013-02-08 15:03:00,32.2,30.9,29.89,WNW,288,7.0,10.0,95,0.00,,,0.28,Wunderground v.1.15,2013-02-08 20:03:00,
2013-02-08 15:08:00,32.1,30.8,29.89,WNW,292,6.0,10.0,95,0.00,,,0.28,Wunderground v.1.15,2013-02-08 20:08:00,
2013-02-08 15:14:00,31.8,30.5,29.89,WSW,249,6.0,14.0,95,0.00,,,0.28,Wunderground v.1.15,2013-02-08 20:14:00,
2013-02-08 15:20:00,31.7,30.4,29.90,NW,314,5.0,10.0,95,0.00,,,0.28,Wunderground v.1.15,2013-02-08 20:20:00,
2013-02-08 15:25:00,31.4,30.1,29.90,SSW,207,6.0,13.0,95,0.00,,,0.28,Wunderground v.1.15,2013-02-08 20:25:00,
2013-02-08 15:31:00,31.2,30.2,29.90,West,265,6.0,10.0,96,0.00,,,0.28,Wunderground v.1.15,2013-02-08 20:31:00,
2013-02-08 15:37:00,30.8,29.5,29.91,SW,214,6.0,10.0,95,0.00,,,0.28,Wunderground v.1.15,2013-02-08 20:37:00,
2013-02-08 15:43:00,30.3,28.8,29.91,West,271,7.0,10.0,94,0.00,,,0.28,Wunderground v.1.15,2013-02-08 20:43:00,
2013-02-08 15:49:00,30.1,28.8,29.92,West,261,7.0,11.0,95,0.00,,,0.28,Wunderground v.1.15,2013-02-08 20:49:00,
2013-02-08 15:55:00,29.9,28.6,29.92,West,259,7.0,10.0,95,0.00,,,0.28,Wunderground v.1.15,2013-02-08 20:55:00,
2013-02-08 16:01:00,29.8,28.5,29.93,WSW,248,6.0,10.0,95,0.00,,,0.28,Wunderground v.1.15,2013-02-08 21:01:00,
2013-02-08 16:07:00,29.7,28.4,29.93,West,276,5.0,10.0,95,0.00,,,0.28,Wunderground v.1.15,2013-02-08 21:07:00,
2013-02-08 16:12:00,29.7,28.4,29.93,West,273,5.0,10.0,95,0.00,,,0.28,Wunderground v.1.15,2013-02-08 21:12:00,
2013-02-08 16:18:00,29.6,28.3,29.94,NNW,329,5.0,10.0,95,0.00,,,0.28,Wunderground v.1.15,2013-02-08 21:18:00,
2013-02-08 16:24:00,29.6,28.3,29.94,WSW,258,5.0,10.0,95,0.00,,,0.28,Wunderground v.1.15,2013-02-08 21:24:00,
2013-02-08 16:30:00,29.5,28.0,29.95,NW,322,6.0,6.0,94,0.00,,,0.28,Wunderground v.1.15,2013-02-08 21:30:00,
2013-02-08 16:36:00,29.5,27.7,29.95,WNW,288,5.0,10.0,93,0.00,,,0.28,Wunderground v.1.15,2013-02-08 21:36:00,
2013-02-08 16:42:00,29.5,28.0,29.95,WNW,300,4.0,10.0,94,0.00,,,0.28,Wunderground v.1.15,2013-02-08 21:42:00,
2013-02-08 16:48:00,29.4,27.6,29.95,WNW,299,5.0,10.0,93,0.00,,,0.28,Wunderground v.1.15,2013-02-08 21:48:00,
2013-02-08 16:54:00,29.4,27.6,29.95,WNW,302,6.0,10.0,93,0.00,,,0.28,Wunderground v.1.15,2013-02-08 21:54:00,
2013-02-08 16:59:00,29.4,27.6,29.96,WSW,240,5.0,14.0,93,0.00,,,0.28,Wunderground v.1.15,2013-02-08 21:59:00,
2013-02-08 17:05:00,29.2,27.4,29.97,NW,308,5.0,11.0,93,0.00,,,0.28,Wunderground v.1.15,2013-02-08 22:05:00,
2013-02-08 17:11:00,29.2,27.4,29.97,WNW,283,6.0,7.0,93,0.00,,,0.28,Wunderground v.1.15,2013-02-08 22:11:00,
2013-02-08 17:17:00,29.1,27.3,29.97,West,269,4.0,10.0,93,0.00,,,0.28,Wunderground v.1.15,2013-02-08 22:17:00,
2013-02-08 17:22:00,29.1,27.6,29.98,NW,305,4.0,10.0,94,0.00,,,0.28,Wunderground v.1.15,2013-02-08 22:22:00,
2013-02-08 17:28:00,29.0,27.2,29.98,NW,306,5.0,10.0,93,0.00,,,0.28,Wunderground v.1.15,2013-02-08 22:28:00,
2013-02-08 17:34:00,28.8,26.8,29.99,West,265,6.0,10.0,92,0.00,,,0.28,Wunderground v.1.15,2013-02-08 22:34:00,
2013-02-08 17:40:00,28.5,25.9,29.99,West,279,7.0,7.0,90,0.00,,,0.28,Wunderground v.1.15,2013-02-08 22:40:00,
2013-02-08 17:45:00,28.2,25.1,30.00,WNW,290,8.0,15.0,88,0.00,,,0.28,Wunderground v.1.15,2013-02-08 22:45:00,
2013-02-08 17:51:00,27.9,24.5,30.00,NW,315,8.0,13.0,87,0.00,,,0.28,Wunderground v.1.15,2013-02-08 22:51:00,
2013-02-08 17:57:00,27.8,24.7,30.00,NW,324,6.0,13.0,88,0.00,,,0.28,Wunderground v.1.15,2013-02-08 22:57:00,
2013-02-08 18:03:00,27.6,24.5,30.01,NW,316,6.0,10.0,88,0.00,,,0.28,Wunderground v.1.15,2013-02-08 23:03:00,
2013-02-08 18:09:00,27.5,24.7,30.01,West,263,6.0,10.0,89,0.00,,,0.28,Wunderground v.1.15,2013-02-08 23:09:00,
2013-02-08 18:15:00,27.2,24.7,30.02,NW,322,5.0,10.0,90,0.00,,,0.28,Wunderground v.1.15,2013-02-08 23:15:00,
2013-02-08 18:20:00,27.1,24.8,30.02,NW,311,5.0,10.0,91,0.00,,,0.28,Wunderground v.1.15,2013-02-08 23:20:00,
2013-02-08 18:26:00,27.1,25.1,30.03,WSW,257,5.0,10.0,92,0.00,,,0.28,Wunderground v.1.15,2013-02-08 23:26:00,
2013-02-08 18:32:00,27.0,25.0,30.03,NW,309,5.0,10.0,92,0.00,,,0.28,Wunderground v.1.15,2013-02-08 23:32:00,
2013-02-08 18:38:00,26.9,24.9,30.04,NW,309,5.0,10.0,92,0.00,,,0.28,Wunderground v.1.15,2013-02-08 23:38:00,
2013-02-08 18:44:00,26.8,24.3,30.05,NW,304,5.0,10.0,90,0.00,,,0.28,Wunderground v.1.15,2013-02-08 23:44:00,
2013-02-08 18:50:00,26.7,24.2,30.05,NW,306,6.0,6.0,90,0.00,,,0.28,Wunderground v.1.15,2013-02-08 23:50:00,
2013-02-08 18:56:00,26.6,24.1,30.06,WNW,285,6.0,10.0,90,0.00,,,0.28,Wunderground v.1.15,2013-02-08 23:56:00,
2013-02-08 19:02:00,26.4,23.9,30.06,West,264,6.0,8.0,90,0.00,,,0.28,Wunderground v.1.15,2013-02-09 00:02:00,
2013-02-08 19:08:00,26.2,23.7,30.06,NNW,340,7.0,11.0,90,0.00,,,0.28,Wunderground v.1.15,2013-02-09 00:08:00,
2013-02-08 19:14:00,26.1,23.6,30.06,WNW,289,6.0,11.0,90,0.00,,,0.28,Wunderground v.1.15,2013-02-09 00:14:00,
2013-02-08 19:20:00,26.1,23.6,30.06,NW,323,5.0,5.0,90,0.00,,,0.28,Wunderground v.1.15,2013-02-09 00:20:00,
2013-02-08 19:26:00,26.1,23.6,30.06,WNW,286,4.0,10.0,90,0.00,,,0.28,Wunderground v.1.15,2013-02-09 00:26:00,
2013-02-08 19:32:00,26.1,23.6,30.07,NNW,328,5.0,10.0,90,0.00,,,0.28,Wunderground v.1.15,2013-02-09 00:32:00,
2013-02-08 19:38:00,26.1,23.3,30.07,NNE,17,5.0,10.0,89,0.00,,,0.28,Wunderground v.1.15,2013-02-09 00:38:00,
2013-02-08 19:43:00,26.1,23.3,30.07,NW,304,5.0,10.0,89,0.00,,,0.28,Wunderground v.1.15,2013-02-09 00:43:00,
2013-02-08 19:49:00,26.2,23.1,30.08,WNW,295,5.0,11.0,88,0.00,,,0.28,Wunderground v.1.15,2013-02-09 00:49:00,
2013-02-08 19:55:00,26.1,23.3,30.08,WNW,289,5.0,10.0,89,0.00,,,0.28,Wunderground v.1.15,2013-02-09 00:55:00,
2013-02-08 20:01:00,25.9,23.1,30.08,NW,308,5.0,10.0,89,0.00,,,0.28,Wunderground v.1.15,2013-02-09 01:01:00,
2013-02-08 20:07:00,25.8,23.3,30.08,NW,315,5.0,10.0,90,0.00,,,0.28,Wunderground v.1.15,2013-02-09 01:07:00,
2013-02-08 20:13:00,25.7,23.2,30.08,WNW,300,5.0,10.0,90,0.00,,,0.28,Wunderground v.1.15,2013-02-09 01:13:00,
2013-02-08 20:19:00,25.6,23.1,30.08,NW,306,4.0,10.0,90,0.00,,,0.28,Wunderground v.1.15,2013-02-09 01:19:00,
2013-02-08 20:24:00,25.5,23.0,30.09,West,259,5.0,10.0,90,0.00,,,0.28,Wunderground v.1.15,2013-02-09 01:24:00,
2013-02-08 20:30:00,25.4,23.1,30.09,NW,304,5.0,5.0,91,0.00,,,0.28,Wunderground v.1.15,2013-02-09 01:30:00,
2013-02-08 20:36:00,25.4,23.1,30.09,NNW,340,4.0,10.0,91,0.00,,,0.28,Wunderground v.1.15,2013-02-09 01:36:00,
2013-02-08 20:42:00,25.2,22.9,30.09,West,263,6.0,10.0,91,0.00,,,0.28,Wunderground v.1.15,2013-02-09 01:42:00,
2013-02-08 20:48:00,25.1,22.6,30.10,NNW,336,7.0,10.0,90,0.00,,,0.28,Wunderground v.1.15,2013-02-09 01:48:00,
2013-02-08 20:54:00,25.0,22.5,30.11,NW,310,6.0,10.0,90,0.00,,,0.28,Wunderground v.1.15,2013-02-09 01:54:00,
2013-02-08 20:59:00,24.9,22.1,30.11,NNW,335,6.0,10.0,89,0.00,,,0.28,Wunderground v.1.15,2013-02-09 01:59:00,
2013-02-08 21:05:00,24.9,22.4,30.11,WNW,293,6.0,11.0,90,0.00,,,0.28,Wunderground v.1.15,2013-02-09 02:05:00,
2013-02-08 21:11:00,24.9,22.1,30.12,WNW,302,6.0,11.0,89,0.00,,,0.28,Wunderground v.1.15,2013-02-09 02:11:00,
2013-02-08 21:17:00,24.8,21.8,30.12,NW,323,6.0,11.0,88,0.00,,,0.28,Wunderground v.1.15,2013-02-09 02:17:00,
2013-02-08 21:23:00,24.8,21.8,30.12,NNE,14,5.0,10.0,88,0.00,,,0.28,Wunderground v.1.15,2013-02-09 02:23:00,
2013-02-08 21:29:00,24.7,21.9,30.13,WNW,282,4.0,13.0,89,0.00,,,0.28,Wunderground v.1.15,2013-02-09 02:29:00,
2013-02-08 21:35:00,24.6,22.1,30.13,WNW,295,5.0,10.0,90,0.00,,,0.28,Wunderground v.1.15,2013-02-09 02:35:00,
2013-02-08 21:41:00,24.5,22.0,30.13,NW,316,5.0,10.0,90,0.00,,,0.28,Wunderground v.1.15,2013-02-09 02:41:00,
2013-02-08 21:47:00,24.5,22.2,30.13,NW,317,4.0,10.0,91,0.00,,,0.28,Wunderground v.1.15,2013-02-09 02:47:00,
2013-02-08 21:52:00,24.3,21.5,30.14,NW,312,6.0,10.0,89,0.00,,,0.28,Wunderground v.1.15,2013-02-09 02:52:00,
2013-02-08 21:58:00,24.2,21.4,30.14,NW,324,6.0,13.0,89,0.00,,,0.28,Wunderground v.1.15,2013-02-09 02:58:00,
2013-02-08 22:04:00,24.2,21.2,30.14,NW,311,6.0,10.0,88,0.00,,,0.28,Wunderground v.1.15,2013-02-09 03:04:00,
2013-02-08 22:10:00,24.0,20.7,30.15,NW,323,6.0,10.0,87,0.00,,,0.28,Wunderground v.1.15,2013-02-09 03:10:00,
2013-02-08 22:16:00,23.9,20.6,30.15,NW,320,7.0,14.0,87,0.00,,,0.28,Wunderground v.1.15,2013-02-09 03:16:00,
2013-02-08 22:21:00,23.9,20.6,30.15,West,277,7.0,10.0,87,0.00,,,0.28,Wunderground v.1.15,2013-02-09 03:21:00,
2013-02-08 22:27:00,23.8,20.5,30.15,North,5,7.0,10.0,87,0.00,,,0.28,Wunderground v.1.15,2013-02-09 03:27:00,
2013-02-08 22:33:00,23.8,20.5,30.15,North,355,6.0,10.0,87,0.00,,,0.28,Wunderground v.1.15,2013-02-09 03:33:00,
2013-02-08 22:39:00,23.7,20.7,30.15,NNW,333,5.0,10.0,88,0.00,,,0.28,Wunderground v.1.15,2013-02-09 03:39:00,
2013-02-08 22:45:00,23.7,20.7,30.16,West,273,6.0,10.0,88,0.00,,,0.28,Wunderground v.1.15,2013-02-09 03:45:00,
2013-02-08 22:51:00,23.6,20.6,30.16,NW,309,5.0,10.0,88,0.00,,,0.28,Wunderground v.1.15,2013-02-09 03:51:00,
2013-02-08 22:57:00,23.5,20.7,30.16,WNW,296,5.0,10.0,89,0.00,,,0.28,Wunderground v.1.15,2013-02-09 03:57:00,
2013-02-08 23:03:00,23.5,20.7,30.16,NW,315,5.0,10.0,89,0.00,,,0.28,Wunderground v.1.15,2013-02-09 04:03:00,
2013-02-08 23:09:00,23.5,20.7,30.16,WNW,287,5.0,10.0,89,0.00,,,0.28,Wunderground v.1.15,2013-02-09 04:09:00,
2013-02-08 23:14:00,23.5,20.7,30.16,West,268,5.0,10.0,89,0.00,,,0.28,Wunderground v.1.15,2013-02-09 04:14:00,
2013-02-08 23:20:00,23.4,20.6,30.16,SSW,207,5.0,10.0,89,0.00,,,0.28,Wunderground v.1.15,2013-02-09 04:20:00,
2013-02-08 23:26:00,23.5,20.7,30.16,NW,325,6.0,10.0,89,0.00,,,0.28,Wunderground v.1.15,2013-02-09 04:26:00,
2013-02-08 23:32:00,23.5,20.7,30.16,WNW,285,5.0,10.0,89,0.00,,,0.28,Wunderground v.1.15,2013-02-09 04:32:00,
2013-02-08 23:38:00,23.5,21.0,30.17,WNW,286,5.0,10.0,90,0.00,,,0.28,Wunderground v.1.15,2013-02-09 04:38:00,
2013-02-08 23:44:00,23.4,20.9,30.17,North,355,5.0,10.0,90,0.00,,,0.28,Wunderground v.1.15,2013-02-09 04:44:00,
2013-02-08 23:50:00,23.3,21.1,30.18,WNW,302,5.0,10.0,91,0.00,,,0.28,Wunderground v.1.15,2013-02-09 04:50:00,
2013-02-08 23:55:00,23.2,20.7,30.18,NW,317,5.0,10.0,90,0.00,,,0.28,Wunderground v.1.15,2013-02-09 04:55:00,